sensor_id;sensor_type;location;lat;lon;timestamp;P1;durP1;ratioP1;P2;durP2;ratioP2
53072;SDS011;38955;48.916;2.336;2023-08-06T00:00:43;1.67;;;0.60;;
53072;SDS011;38955;48.916;2.336;2023-08-06T00:02:45;1.45;;;0.60;;
53072;SDS011;38955;48.916;2.336;2023-08-06T00:04:47;1.90;;;0.70;;
53072;SDS011;38955;48.916;2.336;2023-08-06T00:06:51;1.20;;;0.50;;
53072;SDS011;38955;48.916;2.336;2023-08-06T00:08:53;5.25;;;0.90;;
53072;SDS011;38955;48.916;2.336;2023-08-06T00:10:56;3.65;;;0.88;;
53072;SDS011;38955;48.916;2.336;2023-08-06T00:12:59;2.83;;;0.80;;
53072;SDS011;38955;48.916;2.336;2023-08-06T00:15:01;1.85;;;0.60;;
53072;SDS011;38955;48.916;2.336;2023-08-06T00:17:03;2.40;;;0.70;;
53072;SDS011;38955;48.916;2.336;2023-08-06T00:19:06;3.50;;;0.70;;
53072;SDS011;38955;48.916;2.336;2023-08-06T00:21:08;2.28;;;0.80;;
53072;SDS011;38955;48.916;2.336;2023-08-06T00:23:11;3.78;;;0.80;;
53072;SDS011;38955;48.916;2.336;2023-08-06T00:25:14;4.80;;;0.90;;
53072;SDS011;38955;48.916;2.336;2023-08-06T00:27:15;3.42;;;0.60;;
53072;SDS011;38955;48.916;2.336;2023-08-06T00:29:18;2.85;;;0.88;;
53072;SDS011;38955;48.916;2.336;2023-08-06T00:31:20;2.40;;;0.80;;
53072;SDS011;38955;48.916;2.336;2023-08-06T00:33:22;1.67;;;0.60;;
53072;SDS011;38955;48.916;2.336;2023-08-06T00:35:24;3.95;;;1.00;;
53072;SDS011;38955;48.916;2.336;2023-08-06T00:37:26;5.20;;;1.05;;
53072;SDS011;38955;48.916;2.336;2023-08-06T00:39:30;2.70;;;1.15;;
53072;SDS011;38955;48.916;2.336;2023-08-06T00:41:32;6.63;;;1.10;;
53072;SDS011;38955;48.916;2.336;2023-08-06T00:43:34;3.72;;;1.13;;
53072;SDS011;38955;48.916;2.336;2023-08-06T00:45:36;3.45;;;1.15;;
53072;SDS011;38955;48.916;2.336;2023-08-06T00:47:39;4.80;;;1.25;;
53072;SDS011;38955;48.916;2.336;2023-08-06T00:49:41;3.38;;;0.90;;
53072;SDS011;38955;48.916;2.336;2023-08-06T00:51:44;2.92;;;0.95;;
53072;SDS011;38955;48.916;2.336;2023-08-06T00:53:46;3.13;;;1.00;;
53072;SDS011;38955;48.916;2.336;2023-08-06T00:55:51;5.38;;;1.20;;
53072;SDS011;38955;48.916;2.336;2023-08-06T00:57:53;2.88;;;1.08;;
53072;SDS011;38955;48.916;2.336;2023-08-06T00:59:57;3.20;;;1.13;;
53072;SDS011;38955;48.916;2.336;2023-08-06T01:02:00;5.82;;;1.48;;
53072;SDS011;38955;48.916;2.336;2023-08-06T01:04:02;5.78;;;1.40;;
53072;SDS011;38955;48.916;2.336;2023-08-06T01:06:04;3.10;;;1.10;;
53072;SDS011;38955;48.916;2.336;2023-08-06T01:08:10;2.00;;;1.08;;
53072;SDS011;38955;48.916;2.336;2023-08-06T01:10:22;5.28;;;1.40;;
53072;SDS011;38955;48.916;2.336;2023-08-06T01:12:34;8.90;;;1.85;;
53072;SDS011;38955;48.916;2.336;2023-08-06T01:14:45;5.53;;;1.63;;
53072;SDS011;38955;48.916;2.336;2023-08-06T01:16:53;5.50;;;1.60;;
53072;SDS011;38955;48.916;2.336;2023-08-06T01:18:56;5.75;;;1.33;;
53072;SDS011;38955;48.916;2.336;2023-08-06T01:21:01;8.95;;;1.58;;
53072;SDS011;38955;48.916;2.336;2023-08-06T01:23:03;5.97;;;2.03;;
53072;SDS011;38955;48.916;2.336;2023-08-06T01:25:05;4.53;;;1.67;;
53072;SDS011;38955;48.916;2.336;2023-08-06T01:27:10;6.65;;;1.75;;
53072;SDS011;38955;48.916;2.336;2023-08-06T01:29:18;3.70;;;1.30;;
53072;SDS011;38955;48.916;2.336;2023-08-06T01:31:26;8.38;;;2.15;;
53072;SDS011;38955;48.916;2.336;2023-08-06T01:33:31;7.03;;;2.17;;
53072;SDS011;38955;48.916;2.336;2023-08-06T01:35:35;11.35;;;1.88;;
53072;SDS011;38955;48.916;2.336;2023-08-06T01:39:44;9.07;;;1.95;;
53072;SDS011;38955;48.916;2.336;2023-08-06T01:41:46;7.38;;;2.33;;
53072;SDS011;38955;48.916;2.336;2023-08-06T01:43:48;4.07;;;1.63;;
53072;SDS011;38955;48.916;2.336;2023-08-06T01:45:50;5.25;;;2.13;;
53072;SDS011;38955;48.916;2.336;2023-08-06T01:47:52;5.90;;;1.90;;
53072;SDS011;38955;48.916;2.336;2023-08-06T01:49:54;7.50;;;2.28;;
53072;SDS011;38955;48.916;2.336;2023-08-06T01:51:57;5.30;;;2.08;;
53072;SDS011;38955;48.916;2.336;2023-08-06T01:54:00;5.07;;;1.95;;
53072;SDS011;38955;48.916;2.336;2023-08-06T01:56:03;6.65;;;2.50;;
53072;SDS011;38955;48.916;2.336;2023-08-06T01:58:05;4.97;;;1.95;;
53072;SDS011;38955;48.916;2.336;2023-08-06T02:00:07;7.32;;;2.50;;
53072;SDS011;38955;48.916;2.336;2023-08-06T02:02:10;6.07;;;2.00;;
53072;SDS011;38955;48.916;2.336;2023-08-06T02:04:12;8.48;;;2.53;;
53072;SDS011;38955;48.916;2.336;2023-08-06T02:06:14;7.00;;;2.90;;
53072;SDS011;38955;48.916;2.336;2023-08-06T02:08:16;7.38;;;2.55;;
53072;SDS011;38955;48.916;2.336;2023-08-06T02:10:19;7.75;;;2.20;;
53072;SDS011;38955;48.916;2.336;2023-08-06T02:12:21;7.78;;;2.17;;
53072;SDS011;38955;48.916;2.336;2023-08-06T02:14:24;6.43;;;2.15;;
53072;SDS011;38955;48.916;2.336;2023-08-06T02:16:26;5.47;;;2.05;;
53072;SDS011;38955;48.916;2.336;2023-08-06T02:18:28;4.95;;;2.28;;
53072;SDS011;38955;48.916;2.336;2023-08-06T02:20:30;12.88;;;2.75;;
53072;SDS011;38955;48.916;2.336;2023-08-06T02:22:32;7.50;;;2.47;;
53072;SDS011;38955;48.916;2.336;2023-08-06T02:24:34;8.43;;;2.33;;
53072;SDS011;38955;48.916;2.336;2023-08-06T02:26:38;5.68;;;2.22;;
53072;SDS011;38955;48.916;2.336;2023-08-06T02:28:40;4.60;;;2.55;;
53072;SDS011;38955;48.916;2.336;2023-08-06T02:30:49;5.32;;;2.22;;
53072;SDS011;38955;48.916;2.336;2023-08-06T02:32:51;6.00;;;2.38;;
53072;SDS011;38955;48.916;2.336;2023-08-06T02:34:53;4.70;;;2.20;;
53072;SDS011;38955;48.916;2.336;2023-08-06T02:36:56;4.47;;;1.88;;
53072;SDS011;38955;48.916;2.336;2023-08-06T02:38:58;6.38;;;2.47;;
53072;SDS011;38955;48.916;2.336;2023-08-06T02:41:01;7.65;;;2.72;;
53072;SDS011;38955;48.916;2.336;2023-08-06T02:43:05;7.47;;;2.30;;
53072;SDS011;38955;48.916;2.336;2023-08-06T02:45:07;11.13;;;2.55;;
53072;SDS011;38955;48.916;2.336;2023-08-06T02:47:10;5.50;;;2.35;;
53072;SDS011;38955;48.916;2.336;2023-08-06T02:49:12;7.43;;;2.80;;
53072;SDS011;38955;48.916;2.336;2023-08-06T02:51:14;6.80;;;2.72;;
53072;SDS011;38955;48.916;2.336;2023-08-06T02:53:16;4.32;;;2.13;;
53072;SDS011;38955;48.916;2.336;2023-08-06T02:55:18;8.00;;;2.50;;
53072;SDS011;38955;48.916;2.336;2023-08-06T02:57:20;7.20;;;2.53;;
53072;SDS011;38955;48.916;2.336;2023-08-06T02:59:23;4.47;;;2.65;;
53072;SDS011;38955;48.916;2.336;2023-08-06T03:01:26;8.25;;;2.78;;
53072;SDS011;38955;48.916;2.336;2023-08-06T03:03:30;9.07;;;2.80;;
53072;SDS011;38955;48.916;2.336;2023-08-06T03:05:32;6.80;;;2.30;;
53072;SDS011;38955;48.916;2.336;2023-08-06T03:07:34;6.85;;;2.70;;
53072;SDS011;38955;48.916;2.336;2023-08-06T03:09:38;7.22;;;2.22;;
53072;SDS011;38955;48.916;2.336;2023-08-06T03:11:40;7.30;;;2.80;;
53072;SDS011;38955;48.916;2.336;2023-08-06T03:13:42;6.50;;;2.90;;
53072;SDS011;38955;48.916;2.336;2023-08-06T03:15:52;7.28;;;2.35;;
53072;SDS011;38955;48.916;2.336;2023-08-06T03:17:55;8.30;;;2.45;;
53072;SDS011;38955;48.916;2.336;2023-08-06T03:19:57;9.95;;;2.88;;
53072;SDS011;38955;48.916;2.336;2023-08-06T03:21:59;5.63;;;2.63;;
53072;SDS011;38955;48.916;2.336;2023-08-06T03:24:01;5.00;;;2.47;;
53072;SDS011;38955;48.916;2.336;2023-08-06T03:26:04;8.15;;;2.70;;
53072;SDS011;38955;48.916;2.336;2023-08-06T03:28:06;6.55;;;2.45;;
53072;SDS011;38955;48.916;2.336;2023-08-06T03:30:08;6.18;;;2.50;;
53072;SDS011;38955;48.916;2.336;2023-08-06T03:32:13;6.65;;;2.65;;
53072;SDS011;38955;48.916;2.336;2023-08-06T03:34:15;8.75;;;2.78;;
53072;SDS011;38955;48.916;2.336;2023-08-06T03:36:17;8.05;;;2.65;;
53072;SDS011;38955;48.916;2.336;2023-08-06T03:38:19;10.10;;;3.10;;
53072;SDS011;38955;48.916;2.336;2023-08-06T03:40:21;9.70;;;2.97;;
53072;SDS011;38955;48.916;2.336;2023-08-06T03:42:23;5.93;;;3.30;;
53072;SDS011;38955;48.916;2.336;2023-08-06T03:44:25;7.53;;;2.85;;
53072;SDS011;38955;48.916;2.336;2023-08-06T03:46:29;8.07;;;2.80;;
53072;SDS011;38955;48.916;2.336;2023-08-06T03:48:36;9.88;;;3.40;;
53072;SDS011;38955;48.916;2.336;2023-08-06T03:50:38;6.45;;;2.53;;
53072;SDS011;38955;48.916;2.336;2023-08-06T03:52:41;7.32;;;2.75;;
53072;SDS011;38955;48.916;2.336;2023-08-06T03:54:43;4.32;;;2.72;;
53072;SDS011;38955;48.916;2.336;2023-08-06T03:56:45;6.25;;;2.78;;
53072;SDS011;38955;48.916;2.336;2023-08-06T03:58:47;7.55;;;3.08;;
53072;SDS011;38955;48.916;2.336;2023-08-06T04:00:57;5.32;;;2.75;;
53072;SDS011;38955;48.916;2.336;2023-08-06T04:02:59;5.88;;;2.58;;
53072;SDS011;38955;48.916;2.336;2023-08-06T04:05:03;6.55;;;2.90;;
53072;SDS011;38955;48.916;2.336;2023-08-06T04:07:05;6.80;;;2.77;;
53072;SDS011;38955;48.916;2.336;2023-08-06T04:09:08;9.35;;;3.08;;
53072;SDS011;38955;48.916;2.336;2023-08-06T04:11:10;5.13;;;2.58;;
53072;SDS011;38955;48.916;2.336;2023-08-06T04:13:13;9.48;;;2.72;;
53072;SDS011;38955;48.916;2.336;2023-08-06T04:15:15;5.30;;;2.70;;
53072;SDS011;38955;48.916;2.336;2023-08-06T04:17:17;8.60;;;2.33;;
53072;SDS011;38955;48.916;2.336;2023-08-06T04:19:22;9.30;;;2.75;;
53072;SDS011;38955;48.916;2.336;2023-08-06T04:21:26;6.82;;;2.97;;
53072;SDS011;38955;48.916;2.336;2023-08-06T04:23:29;7.53;;;3.28;;
53072;SDS011;38955;48.916;2.336;2023-08-06T04:25:31;5.82;;;2.53;;
53072;SDS011;38955;48.916;2.336;2023-08-06T04:27:33;7.35;;;2.95;;
53072;SDS011;38955;48.916;2.336;2023-08-06T04:29:35;6.25;;;2.60;;
53072;SDS011;38955;48.916;2.336;2023-08-06T04:31:37;5.38;;;2.33;;
53072;SDS011;38955;48.916;2.336;2023-08-06T04:33:39;10.20;;;2.90;;
53072;SDS011;38955;48.916;2.336;2023-08-06T04:35:41;4.10;;;2.88;;
53072;SDS011;38955;48.916;2.336;2023-08-06T04:37:46;6.10;;;2.95;;
53072;SDS011;38955;48.916;2.336;2023-08-06T04:39:48;4.93;;;2.70;;
53072;SDS011;38955;48.916;2.336;2023-08-06T04:41:50;9.48;;;3.17;;
53072;SDS011;38955;48.916;2.336;2023-08-06T04:43:52;7.65;;;3.83;;
53072;SDS011;38955;48.916;2.336;2023-08-06T04:45:55;8.27;;;3.00;;
53072;SDS011;38955;48.916;2.336;2023-08-06T04:47:57;7.40;;;3.10;;
53072;SDS011;38955;48.916;2.336;2023-08-06T04:49:59;4.88;;;2.80;;
53072;SDS011;38955;48.916;2.336;2023-08-06T04:52:02;8.27;;;3.00;;
53072;SDS011;38955;48.916;2.336;2023-08-06T04:54:06;6.53;;;3.13;;
53072;SDS011;38955;48.916;2.336;2023-08-06T04:56:09;7.68;;;2.90;;
53072;SDS011;38955;48.916;2.336;2023-08-06T04:58:13;7.00;;;3.00;;
53072;SDS011;38955;48.916;2.336;2023-08-06T05:00:15;18.42;;;2.70;;
53072;SDS011;38955;48.916;2.336;2023-08-06T05:02:17;7.13;;;2.63;;
53072;SDS011;38955;48.916;2.336;2023-08-06T05:04:22;6.43;;;3.05;;
53072;SDS011;38955;48.916;2.336;2023-08-06T05:06:24;8.68;;;2.58;;
53072;SDS011;38955;48.916;2.336;2023-08-06T05:08:26;7.13;;;2.50;;
53072;SDS011;38955;48.916;2.336;2023-08-06T05:10:30;8.15;;;2.85;;
53072;SDS011;38955;48.916;2.336;2023-08-06T05:12:32;5.93;;;2.95;;
53072;SDS011;38955;48.916;2.336;2023-08-06T05:14:34;7.13;;;2.72;;
53072;SDS011;38955;48.916;2.336;2023-08-06T05:16:36;6.20;;;2.35;;
53072;SDS011;38955;48.916;2.336;2023-08-06T05:18:38;5.40;;;2.75;;
53072;SDS011;38955;48.916;2.336;2023-08-06T05:20:41;9.25;;;2.90;;
53072;SDS011;38955;48.916;2.336;2023-08-06T05:22:43;5.78;;;2.65;;
53072;SDS011;38955;48.916;2.336;2023-08-06T05:24:45;9.48;;;2.67;;
53072;SDS011;38955;48.916;2.336;2023-08-06T05:26:49;7.63;;;2.60;;
53072;SDS011;38955;48.916;2.336;2023-08-06T05:28:51;10.70;;;2.95;;
53072;SDS011;38955;48.916;2.336;2023-08-06T05:30:53;7.18;;;2.38;;
53072;SDS011;38955;48.916;2.336;2023-08-06T05:32:55;4.30;;;2.33;;
53072;SDS011;38955;48.916;2.336;2023-08-06T05:34:58;8.00;;;2.72;;
53072;SDS011;38955;48.916;2.336;2023-08-06T05:37:00;6.88;;;2.70;;
53072;SDS011;38955;48.916;2.336;2023-08-06T05:39:02;10.43;;;2.40;;
53072;SDS011;38955;48.916;2.336;2023-08-06T05:41:04;5.50;;;2.35;;
53072;SDS011;38955;48.916;2.336;2023-08-06T05:43:07;4.80;;;2.15;;
53072;SDS011;38955;48.916;2.336;2023-08-06T05:45:09;4.47;;;2.22;;
53072;SDS011;38955;48.916;2.336;2023-08-06T05:47:12;6.95;;;2.60;;
53072;SDS011;38955;48.916;2.336;2023-08-06T05:49:14;6.97;;;2.65;;
53072;SDS011;38955;48.916;2.336;2023-08-06T05:51:16;5.97;;;2.00;;
53072;SDS011;38955;48.916;2.336;2023-08-06T05:53:18;5.35;;;2.00;;
53072;SDS011;38955;48.916;2.336;2023-08-06T05:55:20;5.35;;;2.00;;
53072;SDS011;38955;48.916;2.336;2023-08-06T05:57:22;4.75;;;2.30;;
53072;SDS011;38955;48.916;2.336;2023-08-06T05:59:25;8.05;;;2.55;;
53072;SDS011;38955;48.916;2.336;2023-08-06T06:01:27;9.20;;;2.33;;
53072;SDS011;38955;48.916;2.336;2023-08-06T06:03:29;4.47;;;2.17;;
53072;SDS011;38955;48.916;2.336;2023-08-06T06:05:32;5.25;;;2.08;;
53072;SDS011;38955;48.916;2.336;2023-08-06T06:07:34;5.82;;;2.47;;
53072;SDS011;38955;48.916;2.336;2023-08-06T06:09:36;4.15;;;2.33;;
53072;SDS011;38955;48.916;2.336;2023-08-06T06:11:38;5.38;;;2.30;;
53072;SDS011;38955;48.916;2.336;2023-08-06T06:13:40;5.07;;;2.10;;
53072;SDS011;38955;48.916;2.336;2023-08-06T06:15:44;7.07;;;2.50;;
53072;SDS011;38955;48.916;2.336;2023-08-06T06:17:48;6.22;;;2.40;;
53072;SDS011;38955;48.916;2.336;2023-08-06T06:19:50;4.75;;;2.20;;
53072;SDS011;38955;48.916;2.336;2023-08-06T06:21:53;6.35;;;2.10;;
53072;SDS011;38955;48.916;2.336;2023-08-06T06:23:55;4.22;;;2.00;;
53072;SDS011;38955;48.916;2.336;2023-08-06T06:25:59;5.82;;;2.25;;
53072;SDS011;38955;48.916;2.336;2023-08-06T06:28:01;6.47;;;1.85;;
53072;SDS011;38955;48.916;2.336;2023-08-06T06:30:04;6.18;;;2.03;;
53072;SDS011;38955;48.916;2.336;2023-08-06T06:32:08;5.70;;;1.90;;
53072;SDS011;38955;48.916;2.336;2023-08-06T06:34:10;4.80;;;2.45;;
53072;SDS011;38955;48.916;2.336;2023-08-06T06:36:12;6.63;;;2.10;;
53072;SDS011;38955;48.916;2.336;2023-08-06T06:38:14;3.50;;;1.70;;
53072;SDS011;38955;48.916;2.336;2023-08-06T06:40:16;6.65;;;2.20;;
53072;SDS011;38955;48.916;2.336;2023-08-06T06:42:18;5.55;;;1.98;;
53072;SDS011;38955;48.916;2.336;2023-08-06T06:44:20;3.33;;;2.10;;
53072;SDS011;38955;48.916;2.336;2023-08-06T06:46:23;3.33;;;1.83;;
53072;SDS011;38955;48.916;2.336;2023-08-06T06:48:26;3.78;;;1.77;;
53072;SDS011;38955;48.916;2.336;2023-08-06T06:50:29;6.63;;;1.70;;
53072;SDS011;38955;48.916;2.336;2023-08-06T06:52:32;4.20;;;1.80;;
53072;SDS011;38955;48.916;2.336;2023-08-06T06:54:34;3.53;;;1.73;;
53072;SDS011;38955;48.916;2.336;2023-08-06T06:56:36;3.95;;;2.00;;
53072;SDS011;38955;48.916;2.336;2023-08-06T06:58:38;6.35;;;1.90;;
53072;SDS011;38955;48.916;2.336;2023-08-06T07:00:42;7.25;;;1.90;;
53072;SDS011;38955;48.916;2.336;2023-08-06T07:02:44;6.25;;;1.60;;
53072;SDS011;38955;48.916;2.336;2023-08-06T07:04:47;3.92;;;1.70;;
53072;SDS011;38955;48.916;2.336;2023-08-06T07:06:51;11.38;;;1.88;;
53072;SDS011;38955;48.916;2.336;2023-08-06T07:08:54;3.45;;;1.70;;
53072;SDS011;38955;48.916;2.336;2023-08-06T07:10:59;6.18;;;1.58;;
53072;SDS011;38955;48.916;2.336;2023-08-06T07:13:03;6.10;;;1.65;;
53072;SDS011;38955;48.916;2.336;2023-08-06T07:15:05;4.30;;;1.60;;
53072;SDS011;38955;48.916;2.336;2023-08-06T07:17:08;4.13;;;1.52;;
53072;SDS011;38955;48.916;2.336;2023-08-06T07:19:11;6.32;;;2.15;;
53072;SDS011;38955;48.916;2.336;2023-08-06T07:21:14;4.90;;;2.05;;
53072;SDS011;38955;48.916;2.336;2023-08-06T07:23:16;4.03;;;1.80;;
53072;SDS011;38955;48.916;2.336;2023-08-06T07:25:18;10.90;;;3.10;;
53072;SDS011;38955;48.916;2.336;2023-08-06T07:27:20;4.35;;;1.80;;
53072;SDS011;38955;48.916;2.336;2023-08-06T07:29:22;6.90;;;2.17;;
53072;SDS011;38955;48.916;2.336;2023-08-06T07:31:25;6.15;;;1.92;;
53072;SDS011;38955;48.916;2.336;2023-08-06T07:33:27;5.57;;;1.92;;
53072;SDS011;38955;48.916;2.336;2023-08-06T07:35:29;8.52;;;2.30;;
53072;SDS011;38955;48.916;2.336;2023-08-06T07:37:32;7.70;;;1.92;;
53072;SDS011;38955;48.916;2.336;2023-08-06T07:39:34;5.72;;;1.92;;
53072;SDS011;38955;48.916;2.336;2023-08-06T07:41:39;7.45;;;2.30;;
53072;SDS011;38955;48.916;2.336;2023-08-06T07:43:42;5.45;;;1.70;;
53072;SDS011;38955;48.916;2.336;2023-08-06T07:45:44;7.57;;;1.90;;
53072;SDS011;38955;48.916;2.336;2023-08-06T07:47:47;4.93;;;1.73;;
53072;SDS011;38955;48.916;2.336;2023-08-06T07:49:49;7.18;;;2.40;;
53072;SDS011;38955;48.916;2.336;2023-08-06T07:51:51;7.20;;;2.22;;
53072;SDS011;38955;48.916;2.336;2023-08-06T07:53:56;5.55;;;2.17;;
53072;SDS011;38955;48.916;2.336;2023-08-06T07:55:58;8.70;;;2.60;;
53072;SDS011;38955;48.916;2.336;2023-08-06T07:58:00;6.40;;;2.28;;
53072;SDS011;38955;48.916;2.336;2023-08-06T08:00:03;7.53;;;2.13;;
53072;SDS011;38955;48.916;2.336;2023-08-06T08:02:06;8.40;;;2.03;;
53072;SDS011;38955;48.916;2.336;2023-08-06T08:04:08;7.00;;;2.08;;
53072;SDS011;38955;48.916;2.336;2023-08-06T08:06:10;4.60;;;1.73;;
53072;SDS011;38955;48.916;2.336;2023-08-06T08:08:12;6.85;;;2.05;;
53072;SDS011;38955;48.916;2.336;2023-08-06T08:10:16;4.93;;;1.60;;
53072;SDS011;38955;48.916;2.336;2023-08-06T08:12:18;5.20;;;2.10;;
53072;SDS011;38955;48.916;2.336;2023-08-06T08:14:20;4.90;;;1.98;;
53072;SDS011;38955;48.916;2.336;2023-08-06T08:16:22;6.10;;;2.35;;
53072;SDS011;38955;48.916;2.336;2023-08-06T08:18:24;7.50;;;2.10;;
53072;SDS011;38955;48.916;2.336;2023-08-06T08:20:26;7.72;;;2.25;;
53072;SDS011;38955;48.916;2.336;2023-08-06T08:22:35;7.93;;;2.10;;
53072;SDS011;38955;48.916;2.336;2023-08-06T08:24:37;7.32;;;2.75;;
53072;SDS011;38955;48.916;2.336;2023-08-06T08:26:40;7.35;;;2.30;;
53072;SDS011;38955;48.916;2.336;2023-08-06T08:28:42;4.00;;;1.83;;
53072;SDS011;38955;48.916;2.336;2023-08-06T08:30:44;4.10;;;1.95;;
53072;SDS011;38955;48.916;2.336;2023-08-06T08:32:47;5.30;;;2.13;;
53072;SDS011;38955;48.916;2.336;2023-08-06T08:34:49;4.82;;;2.20;;
53072;SDS011;38955;48.916;2.336;2023-08-06T08:36:51;7.15;;;2.50;;
53072;SDS011;38955;48.916;2.336;2023-08-06T08:38:53;6.00;;;2.20;;
53072;SDS011;38955;48.916;2.336;2023-08-06T08:40:55;6.50;;;2.13;;
53072;SDS011;38955;48.916;2.336;2023-08-06T08:42:59;8.18;;;2.03;;
53072;SDS011;38955;48.916;2.336;2023-08-06T08:45:01;6.35;;;2.10;;
53072;SDS011;38955;48.916;2.336;2023-08-06T08:47:05;6.72;;;2.10;;
53072;SDS011;38955;48.916;2.336;2023-08-06T08:49:08;3.90;;;1.90;;
53072;SDS011;38955;48.916;2.336;2023-08-06T08:51:10;4.55;;;2.17;;
53072;SDS011;38955;48.916;2.336;2023-08-06T08:53:14;5.97;;;2.00;;
53072;SDS011;38955;48.916;2.336;2023-08-06T08:55:18;3.50;;;1.80;;
53072;SDS011;38955;48.916;2.336;2023-08-06T08:59:26;5.10;;;1.85;;
53072;SDS011;38955;48.916;2.336;2023-08-06T09:01:28;4.13;;;1.92;;
53072;SDS011;38955;48.916;2.336;2023-08-06T09:03:31;6.03;;;2.17;;
53072;SDS011;38955;48.916;2.336;2023-08-06T09:05:34;4.50;;;1.92;;
53072;SDS011;38955;48.916;2.336;2023-08-06T09:07:39;6.82;;;2.13;;
53072;SDS011;38955;48.916;2.336;2023-08-06T09:09:46;3.35;;;2.05;;
53072;SDS011;38955;48.916;2.336;2023-08-06T09:11:51;4.93;;;2.35;;
53072;SDS011;38955;48.916;2.336;2023-08-06T09:13:54;5.22;;;2.40;;
53072;SDS011;38955;48.916;2.336;2023-08-06T09:15:58;5.13;;;2.22;;
53072;SDS011;38955;48.916;2.336;2023-08-06T09:18:01;4.60;;;2.00;;
53072;SDS011;38955;48.916;2.336;2023-08-06T09:20:11;4.28;;;2.20;;
53072;SDS011;38955;48.916;2.336;2023-08-06T09:22:15;6.65;;;2.47;;
53072;SDS011;38955;48.916;2.336;2023-08-06T09:24:17;3.92;;;1.83;;
53072;SDS011;38955;48.916;2.336;2023-08-06T09:26:19;6.78;;;1.80;;
53072;SDS011;38955;48.916;2.336;2023-08-06T09:28:21;3.83;;;1.80;;
53072;SDS011;38955;48.916;2.336;2023-08-06T09:30:29;5.43;;;1.92;;
53072;SDS011;38955;48.916;2.336;2023-08-06T09:32:45;3.83;;;1.88;;
53072;SDS011;38955;48.916;2.336;2023-08-06T09:34:55;6.00;;;1.52;;
53072;SDS011;38955;48.916;2.336;2023-08-06T09:36:58;5.50;;;1.88;;
53072;SDS011;38955;48.916;2.336;2023-08-06T09:39:00;4.68;;;2.05;;
53072;SDS011;38955;48.916;2.336;2023-08-06T09:41:15;6.57;;;1.85;;
53072;SDS011;38955;48.916;2.336;2023-08-06T09:43:29;6.63;;;1.90;;
53072;SDS011;38955;48.916;2.336;2023-08-06T09:45:31;5.45;;;1.98;;
53072;SDS011;38955;48.916;2.336;2023-08-06T09:47:36;4.60;;;1.75;;
53072;SDS011;38955;48.916;2.336;2023-08-06T09:49:42;5.05;;;2.10;;
53072;SDS011;38955;48.916;2.336;2023-08-06T09:51:46;4.38;;;1.60;;
53072;SDS011;38955;48.916;2.336;2023-08-06T09:53:52;7.13;;;2.08;;
53072;SDS011;38955;48.916;2.336;2023-08-06T09:55:55;4.22;;;1.80;;
53072;SDS011;38955;48.916;2.336;2023-08-06T09:57:58;8.13;;;1.63;;
53072;SDS011;38955;48.916;2.336;2023-08-06T10:00:01;4.78;;;1.90;;
53072;SDS011;38955;48.916;2.336;2023-08-06T10:02:04;4.40;;;1.90;;
53072;SDS011;38955;48.916;2.336;2023-08-06T10:04:14;5.13;;;2.00;;
53072;SDS011;38955;48.916;2.336;2023-08-06T10:06:26;4.70;;;2.20;;
53072;SDS011;38955;48.916;2.336;2023-08-06T10:10:32;4.03;;;1.55;;
53072;SDS011;38955;48.916;2.336;2023-08-06T10:12:35;6.13;;;1.92;;
53072;SDS011;38955;48.916;2.336;2023-08-06T10:14:41;9.80;;;2.10;;
53072;SDS011;38955;48.916;2.336;2023-08-06T10:16:45;4.72;;;1.70;;
53072;SDS011;38955;48.916;2.336;2023-08-06T10:18:48;3.78;;;2.10;;
53072;SDS011;38955;48.916;2.336;2023-08-06T10:20:52;4.72;;;2.20;;
53072;SDS011;38955;48.916;2.336;2023-08-06T10:23:03;5.18;;;1.50;;
53072;SDS011;38955;48.916;2.336;2023-08-06T10:25:07;4.15;;;1.63;;
53072;SDS011;38955;48.916;2.336;2023-08-06T10:27:09;5.22;;;1.90;;
53072;SDS011;38955;48.916;2.336;2023-08-06T10:31:53;5.20;;;1.95;;
53072;SDS011;38955;48.916;2.336;2023-08-06T10:33:58;4.25;;;1.98;;
53072;SDS011;38955;48.916;2.336;2023-08-06T10:36:01;2.72;;;1.80;;
53072;SDS011;38955;48.916;2.336;2023-08-06T10:38:08;4.75;;;1.70;;
53072;SDS011;38955;48.916;2.336;2023-08-06T10:40:12;3.40;;;1.60;;
53072;SDS011;38955;48.916;2.336;2023-08-06T10:42:22;3.38;;;1.38;;
53072;SDS011;38955;48.916;2.336;2023-08-06T10:44:28;5.72;;;1.83;;
53072;SDS011;38955;48.916;2.336;2023-08-06T10:46:33;2.88;;;1.33;;
53072;SDS011;38955;48.916;2.336;2023-08-06T10:48:36;4.88;;;1.85;;
53072;SDS011;38955;48.916;2.336;2023-08-06T10:50:39;6.65;;;1.77;;
53072;SDS011;38955;48.916;2.336;2023-08-06T10:52:42;1.80;;;1.27;;
53072;SDS011;38955;48.916;2.336;2023-08-06T10:54:46;3.40;;;1.58;;
53072;SDS011;38955;48.916;2.336;2023-08-06T10:56:48;3.67;;;1.77;;
53072;SDS011;38955;48.916;2.336;2023-08-06T10:58:51;3.90;;;1.58;;
53072;SDS011;38955;48.916;2.336;2023-08-06T11:00:55;3.25;;;1.42;;
53072;SDS011;38955;48.916;2.336;2023-08-06T11:02:59;5.20;;;1.30;;
53072;SDS011;38955;48.916;2.336;2023-08-06T11:05:05;2.92;;;1.33;;
53072;SDS011;38955;48.916;2.336;2023-08-06T11:07:08;5.10;;;1.60;;
53072;SDS011;38955;48.916;2.336;2023-08-06T11:09:10;3.53;;;1.60;;
53072;SDS011;38955;48.916;2.336;2023-08-06T11:11:14;4.88;;;1.33;;
53072;SDS011;38955;48.916;2.336;2023-08-06T11:13:17;5.50;;;1.50;;
53072;SDS011;38955;48.916;2.336;2023-08-06T11:15:22;4.95;;;2.47;;
53072;SDS011;38955;48.916;2.336;2023-08-06T11:17:25;5.18;;;1.48;;
53072;SDS011;38955;48.916;2.336;2023-08-06T11:19:29;2.47;;;1.30;;
53072;SDS011;38955;48.916;2.336;2023-08-06T11:21:31;3.85;;;1.40;;
53072;SDS011;38955;48.916;2.336;2023-08-06T11:23:33;2.63;;;1.20;;
53072;SDS011;38955;48.916;2.336;2023-08-06T11:25:36;4.32;;;1.40;;
53072;SDS011;38955;48.916;2.336;2023-08-06T11:27:40;4.90;;;1.60;;
53072;SDS011;38955;48.916;2.336;2023-08-06T11:29:42;3.72;;;1.40;;
53072;SDS011;38955;48.916;2.336;2023-08-06T11:31:45;4.13;;;1.63;;
53072;SDS011;38955;48.916;2.336;2023-08-06T11:33:48;7.55;;;1.65;;
53072;SDS011;38955;48.916;2.336;2023-08-06T11:35:51;3.00;;;1.38;;
53072;SDS011;38955;48.916;2.336;2023-08-06T11:37:55;3.00;;;1.50;;
53072;SDS011;38955;48.916;2.336;2023-08-06T11:39:57;4.95;;;1.92;;
53072;SDS011;38955;48.916;2.336;2023-08-06T11:42:02;3.38;;;1.58;;
53072;SDS011;38955;48.916;2.336;2023-08-06T11:44:06;5.45;;;1.75;;
53072;SDS011;38955;48.916;2.336;2023-08-06T11:46:17;5.03;;;1.50;;
53072;SDS011;38955;48.916;2.336;2023-08-06T11:48:19;4.38;;;2.67;;
53072;SDS011;38955;48.916;2.336;2023-08-06T11:50:22;3.22;;;1.80;;
53072;SDS011;38955;48.916;2.336;2023-08-06T11:52:25;3.88;;;1.60;;
53072;SDS011;38955;48.916;2.336;2023-08-06T11:54:30;4.15;;;1.63;;
53072;SDS011;38955;48.916;2.336;2023-08-06T11:56:35;4.18;;;1.77;;
53072;SDS011;38955;48.916;2.336;2023-08-06T11:58:37;4.63;;;1.83;;
53072;SDS011;38955;48.916;2.336;2023-08-06T12:00:43;8.48;;;1.63;;
53072;SDS011;38955;48.916;2.336;2023-08-06T12:02:45;3.28;;;1.42;;
53072;SDS011;38955;48.916;2.336;2023-08-06T12:04:58;3.75;;;1.60;;
53072;SDS011;38955;48.916;2.336;2023-08-06T12:07:05;6.50;;;1.63;;
53072;SDS011;38955;48.916;2.336;2023-08-06T12:09:10;4.88;;;1.80;;
53072;SDS011;38955;48.916;2.336;2023-08-06T12:11:12;3.72;;;1.98;;
53072;SDS011;38955;48.916;2.336;2023-08-06T12:13:14;2.83;;;1.80;;
53072;SDS011;38955;48.916;2.336;2023-08-06T12:15:17;3.15;;;1.70;;
53072;SDS011;38955;48.916;2.336;2023-08-06T12:17:20;4.15;;;1.80;;
53072;SDS011;38955;48.916;2.336;2023-08-06T12:19:22;2.47;;;1.50;;
53072;SDS011;38955;48.916;2.336;2023-08-06T12:21:25;2.80;;;1.45;;
53072;SDS011;38955;48.916;2.336;2023-08-06T12:23:28;7.03;;;2.03;;
53072;SDS011;38955;48.916;2.336;2023-08-06T12:25:30;3.15;;;1.67;;
53072;SDS011;38955;48.916;2.336;2023-08-06T12:27:32;2.97;;;1.63;;
53072;SDS011;38955;48.916;2.336;2023-08-06T12:29:34;5.03;;;2.03;;
53072;SDS011;38955;48.916;2.336;2023-08-06T12:31:36;2.45;;;1.50;;